Time;durP1;ratioP1;P1;durP2;ratioP2;P2;SDS_P1;SDS_P2;PMS_P1;PMS_P2;Temp;Humidity;BMP_temperature;BMP_pressure;BME280_temperature;BME280_humidity;BME280_pressure;Samples;Min_cycle;Max_cycle;Signal;HPM_P1;HPM_P2
2023/10/22 00:05:00;;;;;;;;;;;;;;;;;;;;;
2023/10/22 00:12:04;;;;;;;4.00;1.67;;;;;;;13.56;68.11;99461.66;5004695;28;20203;-72
2023/10/22 00:15:14;;;;;;;;;;;;;;;;;;;;;
2023/10/22 00:17:57;;;;;;;11.10;3.27;;;;;;;13.54;68.22;99461.81;4937483;28;20214;-70
2023/10/22 00:24:37;;;;;;;9.50;2.97;;;;;;;13.59;68.23;99469.25;4950443;28;20282;-70
2023/10/22 00:42:02;;;;;;;3.90;1.27;;;;;;;13.45;68.00;99480.81;4859881;29;20234;-71
2023/10/22 00:48:33;;;;;;;2.10;0.83;;;;;;;13.44;68.35;99495.16;4944593;28;20219;-68
2023/10/22 00:51:02;;;;;;;7.00;1.30;;;;;;;13.44;68.39;99493.31;4938028;28;20211;-69
2023/10/22 01:05:05;;;;;;;;;;;;;;;;;;;;;
2023/10/22 01:08:03;;;;;;;6.20;2.03;;;;;;;13.61;66.71;99499.22;4972331;28;20665;-69
2023/10/22 01:10:38;;;;;;;6.37;2.60;;;;;;;13.62;66.91;99500.84;4970374;28;20205;-71
2023/10/22 01:14:01;;;;;;;6.30;1.83;;;;;;;13.56;66.88;99501.59;4974857;28;20207;-70
2023/10/22 01:19:54;;;;;;;2.20;0.80;;;;;;;13.55;67.01;99513.25;4895954;29;20301;-69
2023/10/22 01:22:27;;;;;;;5.73;0.80;;;;;;;13.55;67.13;99522.06;4960922;28;20315;-68
2023/10/22 01:28:16;;;;;;;6.37;1.30;;;;;;;13.54;66.98;99520.44;4968977;28;20229;-69
2023/10/22 01:30:53;;;;;;;5.33;1.17;;;;;;;13.60;66.78;99520.69;4971663;28;20218;-69
2023/10/22 01:33:37;;;;;;;5.53;1.20;;;;;;;13.63;66.35;99523.81;4974716;28;20206;-68
2023/10/22 01:36:18;;;;;;;4.20;0.90;;;;;;;13.65;66.18;99516.44;5030732;28;20228;-70
2023/10/22 01:39:18;;;;;;;5.03;1.47;;;;;;;13.58;66.48;99510.22;5029728;28;20632;-71
2023/10/22 01:50:04;;;;;;;;;;;;;;;;;;;;;
2023/10/22 01:57:25;;;;;;;3.90;0.90;;;;;;;13.51;66.25;99517.34;4844317;29;20300;-72
2023/10/22 02:00:02;;;;;;;3.07;0.60;;;;;;;13.54;66.34;99531.06;4845807;28;20208;-70
2023/10/22 02:02:36;;;;;;;3.33;1.00;;;;;;;13.47;66.84;99530.19;4978856;28;20215;-72
2023/10/22 02:08:50;;;;;;;10.20;1.53;;;;;;;13.47;66.62;99545.34;4958081;28;20751;-69
2023/10/22 02:19:32;;;;;;;5.03;0.70;;;;;;;13.46;66.56;99546.34;4877438;28;20230;-68
2023/10/22 02:22:59;;;;;;;2.93;0.87;;;;;;;13.41;66.67;99541.63;5025551;28;20204;-71
2023/10/22 02:25:34;;;;;;;5.03;1.17;;;;;;;13.37;67.28;99550.19;5023525;28;20211;-68
2023/10/22 02:46:33;;;;;;;4.60;1.10;;;;;;;13.19;68.71;99551.38;5018294;28;20725;-69
2023/10/22 02:49:18;;;;;;;5.67;1.07;;;;;;;13.30;68.64;99551.91;5027720;28;20294;-70
2023/10/22 02:51:49;;;;;;;4.47;1.00;;;;;;;13.40;67.80;99555.09;5029331;28;20200;-68
2023/10/22 02:54:30;;;;;;;4.73;1.20;;;;;;;13.34;67.66;99550.53;5028493;28;20295;-72
2023/10/22 02:57:16;;;;;;;2.50;0.80;;;;;;;13.30;67.98;99558.06;5018548;28;20234;-68
2023/10/22 03:00:37;;;;;;;3.43;1.03;;;;;;;13.31;68.26;99564.22;4987835;28;20212;-68
2023/10/22 03:09:44;;;;;;;5.30;1.27;;;;;;;13.27;68.56;99565.63;4873546;29;20203;-68
2023/10/22 03:12:15;;;;;;;5.33;1.37;;;;;;;13.27;67.98;99566.44;4948326;28;20205;-68
2023/10/22 03:34:52;;;;;;;5.33;1.10;;;;;;;13.08;69.12;99586.47;4891515;29;20555;-68
2023/10/22 03:40:24;;;;;;;5.80;1.03;;;;;;;13.04;69.28;99590.47;4873154;29;20985;-70
2023/10/22 03:46:53;;;;;;;4.83;1.87;;;;;;;12.91;70.33;99608.94;4823147;29;20272;-70
2023/10/22 03:57:14;;;;;;;5.30;1.50;;;;;;;12.91;70.11;99622.25;4914150;29;20276;-68
2023/10/22 03:59:43;;;;;;;5.43;1.27;;;;;;;12.86;70.82;99624.63;4930724;28;20229;-71
2023/10/22 04:02:18;;;;;;;6.50;1.57;;;;;;;12.98;70.88;99625.00;4964173;28;20199;-69
2023/10/22 04:04:51;;;;;;;8.60;1.77;;;;;;;13.03;70.54;99634.06;4967304;28;20209;-68
2023/10/22 04:07:22;;;;;;;5.60;1.80;;;;;;;13.09;70.27;99641.34;4986830;28;20593;-68
2023/10/22 04:09:55;;;;;;;6.77;1.90;;;;;;;13.16;70.28;99644.13;5027439;28;20203;-69
2023/10/22 04:12:47;;;;;;;3.90;1.40;;;;;;;13.13;69.74;99650.63;5011641;28;20209;-70
2023/10/22 04:15:23;;;;;;;6.73;1.40;;;;;;;13.15;69.59;99653.94;5028602;28;20199;-75
2023/10/22 04:24:46;;;;;;;6.83;1.20;;;;;;;13.06;70.21;99672.81;5031770;28;20337;-68
2023/10/22 04:28:20;;;;;;;4.90;1.07;;;;;;;13.09;69.95;99665.28;5010604;28;20238;-69
2023/10/22 04:31:05;;;;;;;5.27;1.27;;;;;;;13.09;70.02;99665.28;5030349;28;20198;-71
2023/10/22 04:34:00;;;;;;;7.90;1.47;;;;;;;13.09;69.64;99665.28;5029601;28;20200;-68
2023/10/22 04:44:42;;;;;;;4.90;1.20;;;;;;;12.93;71.14;99675.28;4969824;28;20804;-69
2023/10/22 04:55:18;;;;;;;6.43;1.40;;;;;;;12.89;71.39;99674.81;4883349;29;20317;-69
2023/10/22 04:58:04;;;;;;;9.17;1.23;;;;;;;12.95;71.21;99674.09;4913824;29;20257;-68
2023/10/22 05:05:13;;;;;;;8.40;1.17;;;;;;;12.83;71.43;99664.91;4933461;29;20205;-69
2023/10/22 05:11:07;;;;;;;8.90;1.30;;;;;;;12.70;72.12;99667.38;4876927;29;20210;-70
2023/10/22 05:13:48;;;;;;;7.40;1.20;;;;;;;12.70;72.27;99659.38;4887563;29;20218;-73
2023/10/22 05:17:29;;;;;;;8.73;1.20;;;;;;;12.70;72.08;99670.03;4951988;29;20748;-69
2023/10/22 05:28:00;;;;;;;5.20;1.00;;;;;;;12.74;72.04;99672.16;4933421;29;20219;-68
2023/10/22 05:31:18;;;;;;;5.97;0.90;;;;;;;12.74;72.10;99684.63;4924203;29;20294;-72
2023/10/22 05:37:30;;;;;;;11.10;1.40;;;;;;;12.73;72.10;99702.41;4839360;29;20263;-68
2023/10/22 05:47:42;;;;;;;5.43;1.17;;;;;;;12.73;72.84;99726.34;4991030;28;20208;-69
2023/10/22 05:54:20;;;;;;;6.87;1.20;;;;;;;12.90;71.90;99729.69;4842107;29;20220;-69
2023/10/22 05:57:07;;;;;;;5.80;1.10;;;;;;;12.90;71.56;99731.53;4879040;28;20230;-71
2023/10/22 06:00:39;;;;;;;4.70;1.10;;;;;;;12.86;71.80;99733.72;4948269;28;20200;-71
2023/10/22 06:11:18;;;;;;;6.07;1.10;;;;;;;12.84;72.27;99743.69;4959107;28;20343;-69
2023/10/22 06:14:18;;;;;;;5.00;1.17;;;;;;;12.89;71.76;99754.66;4968548;28;20246;-72
2023/10/22 06:32:38;;;;;;;4.87;1.10;;;;;;;12.83;72.66;99771.34;4968082;28;20210;-68
2023/10/22 06:35:22;;;;;;;7.63;1.40;;;;;;;12.82;72.81;99772.34;4953018;28;20203;-69
2023/10/22 06:54:05;;;;;;;4.57;0.97;;;;;;;13.16;71.90;99786.03;4968472;28;20227;-69
2023/10/22 06:57:50;;;;;;;7.07;1.40;;;;;;;13.15;72.08;99787.03;5013766;28;20329;-68
2023/10/22 07:04:18;;;;;;;9.57;1.53;;;;;;;13.28;71.84;99791.72;5028434;28;20252;-68
2023/10/22 07:21:32;;;;;;;6.87;1.60;;;;;;;13.51;71.93;99811.13;4954066;28;20611;-70
2023/10/22 07:28:17;;;;;;;10.97;1.70;;;;;;;13.81;71.35;99816.44;5017425;28;20223;-67
2023/10/22 07:31:17;;;;;;;8.67;2.60;;;;;;;13.83;71.57;99819.75;5017745;28;20203;-69
2023/10/22 07:43:08;;;;;;;8.00;1.00;;;;;;;14.05;71.31;99826.81;5014669;28;20573;-68
2023/10/22 07:49:24;;;;;;;8.50;1.53;;;;;;;14.16;71.19;99833.53;5011303;28;20219;-68
2023/10/22 07:55:14;;;;;;;7.87;1.80;;;;;;;14.46;70.31;99840.47;5019483;28;20200;-68
2023/10/22 08:01:24;;;;;;;8.93;1.90;;;;;;;14.63;69.76;99847.22;5021592;28;20637;-67
2023/10/22 08:04:05;;;;;;;8.70;1.90;;;;;;;14.68;69.49;99844.81;5006284;28;20209;-67
2023/10/22 08:07:12;;;;;;;8.53;1.90;;;;;;;14.86;71.22;99851.56;5020240;28;20206;-66
2023/10/22 08:13:06;;;;;;;8.77;1.67;;;;;;;15.18;68.62;99855.53;5022888;28;20216;-68
2023/10/22 08:22:30;;;;;;;9.30;1.90;;;;;;;15.26;68.28;99869.59;4959791;28;20214;-73
2023/10/22 08:31:40;;;;;;;7.80;1.90;;;;;;;15.18;68.47;99882.25;5017458;28;20598;-68
2023/10/22 08:34:57;;;;;;;5.07;1.43;;;;;;;15.10;68.94;99882.38;5019738;28;20204;-68
2023/10/22 08:38:44;;;;;;;8.93;1.50;;;;;;;15.07;68.97;99888.94;5017598;28;20682;-68
2023/10/22 08:45:01;;;;;;;5.37;1.50;;;;;;;15.04;69.14;99894.63;5022699;28;20597;-68
2023/10/22 09:30:15;;;;;;;14.87;2.13;;;;;;;16.00;64.08;99936.78;5022608;28;20663;-69
2023/10/22 10:44:12;;;;;;;12.40;2.27;;;;;;;17.40;57.48;99955.06;4899712;29;20223;-71
2023/10/22 11:05:05;;;;;;;14.30;2.70;;;;;;;17.68;56.71;99958.38;4871724;29;20224;-68
2023/10/22 11:07:35;;;;;;;11.83;2.23;;;;;;;17.72;56.82;99964.16;4909164;29;20689;-69
2023/10/22 11:10:10;;;;;;;11.27;2.43;;;;;;;17.75;55.94;99958.41;4941706;29;20215;-69
2023/10/22 11:16:06;;;;;;;10.53;2.03;;;;;;;17.85;54.49;99970.38;5021748;28;20228;-68
2023/10/22 11:18:58;;;;;;;9.87;2.03;;;;;;;17.91;54.33;99964.16;5018687;28;20229;-69
2023/10/22 11:24:49;;;;;;;9.23;2.17;;;;;;;17.97;52.86;99967.84;5022500;28;20542;-68
2023/10/22 11:34:34;;;;;;;9.53;2.17;;;;;;;18.03;52.96;99975.06;4981877;28;20589;-68
2023/10/22 11:37:42;;;;;;;16.80;3.07;;;;;;;18.31;53.07;99964.06;5023461;28;20206;-69
2023/10/22 11:50:58;;;;;;;15.60;2.20;;;;;;;20.80;45.94;99965.19;5019442;28;20208;-68
2023/10/22 11:53:31;;;;;;;11.17;2.10;;;;;;;20.40;45.69;99965.66;5022990;28;20206;-68
2023/10/22 11:55:59;;;;;;;8.17;2.17;;;;;;;20.01;46.63;99966.84;5023129;28;20663;-68
2023/10/22 11:58:28;;;;;;;13.83;2.10;;;;;;;19.80;47.89;99964.53;5020474;28;20236;-69
2023/10/22 12:00:58;;;;;;;12.30;2.47;;;;;;;19.67;49.34;99968.19;5024592;28;20205;-68
2023/10/22 12:03:27;;;;;;;13.07;1.67;;;;;;;19.48;48.31;99974.53;5021244;28;20656;-69
2023/10/22 12:06:32;;;;;;;8.57;2.00;;;;;;;19.06;49.29;99974.16;5023229;28;20212;-68
2023/10/22 12:09:14;;;;;;;10.97;1.70;;;;;;;18.85;50.38;99977.13;5004718;28;20208;-69
2023/10/22 12:11:54;;;;;;;11.50;2.20;;;;;;;18.66;51.21;99972.66;5021379;28;20201;-69
2023/10/22 12:14:23;;;;;;;14.40;2.20;;;;;;;18.48;51.30;99980.53;5019388;28;20212;-69
2023/10/22 12:17:26;;;;;;;7.40;1.67;;;;;;;18.42;52.61;99983.06;5019751;28;20662;-69
2023/10/22 12:20:02;;;;;;;9.67;2.10;;;;;;;18.47;51.38;99981.59;5015971;28;20260;-68
2023/10/22 12:22:34;;;;;;;9.60;1.90;;;;;;;18.45;50.97;99987.19;5020576;28;20732;-68
2023/10/22 12:25:43;;;;;;;9.73;1.97;;;;;;;18.28;50.72;99985.97;5020746;28;20312;-68
2023/10/22 12:28:32;;;;;;;6.20;1.17;;;;;;;19.57;48.93;99986.66;4993551;28;20196;-68
2023/10/22 12:31:07;;;;;;;9.70;2.17;;;;;;;21.72;43.85;99988.16;5021324;28;20667;-69
2023/10/22 12:34:00;;;;;;;12.60;2.40;;;;;;;21.72;43.54;99993.56;5021089;28;20298;-69
2023/10/22 12:36:57;;;;;;;8.73;1.60;;;;;;;21.65;43.17;99995.50;5025186;28;20654;-69
2023/10/22 12:39:50;;;;;;;11.02;2.15;;;;;;;20.71;44.43;99997.00;5022651;28;20240;-70
2023/10/22 12:49:11;;;;;;;8.90;1.77;;;;;;;20.33;45.78;99990.97;5022439;28;20621;-69
2023/10/22 12:51:44;;;;;;;6.38;1.83;;;;;;;20.47;45.33;99996.03;5025490;28;20204;-69
2023/10/22 12:54:19;;;;;;;4.25;1.23;;;;;;;20.42;44.94;100006.63;5024610;28;20228;-69
2023/10/22 12:56:53;;;;;;;8.52;1.80;;;;;;;20.39;44.95;100000.88;5025854;28;20204;-68
2023/10/22 12:59:46;;;;;;;9.07;1.85;;;;;;;20.12;45.15;100003.81;5010549;28;20225;-69
2023/10/22 13:04:59;;;;;;;9.70;1.83;;;;;;;19.59;46.00;100005.28;5025213;28;20260;-69
2023/10/22 13:07:27;;;;;;;8.40;1.70;;;;;;;19.45;46.84;99999.13;5025628;28;20205;-69
2023/10/22 13:09:56;;;;;;;7.57;1.63;;;;;;;19.32;46.01;100002.75;5022229;28;20224;-68
2023/10/22 13:12:44;;;;;;;11.80;2.07;;;;;;;19.16;47.04;100001.38;5024244;28;20850;-69
2023/10/22 13:18:59;;;;;;;9.10;1.43;;;;;;;18.56;48.64;99993.75;5020195;28;20223;-69
2023/10/22 13:24:23;;;;;;;4.77;1.17;;;;;;;18.50;48.42;100010.69;5027593;28;21115;-69
2023/10/22 13:27:03;;;;;;;6.53;1.50;;;;;;;18.54;48.51;100007.41;5026063;28;20196;-70
2023/10/22 13:32:39;;;;;;;10.77;1.27;;;;;;;18.58;48.03;100010.50;5026425;28;20227;-70
2023/10/22 13:37:56;;;;;;;7.20;2.17;;;;;;;18.61;48.05;100004.72;5024190;28;20215;-70
2023/10/22 13:40:24;;;;;;;8.33;1.33;;;;;;;18.59;47.98;100004.91;5024457;28;20229;-69
2023/10/22 13:43:10;;;;;;;12.70;1.90;;;;;;;18.64;47.60;100004.31;5025522;28;20718;-69
2023/10/22 13:45:40;;;;;;;7.43;2.07;;;;;;;18.51;48.25;100010.50;5026107;28;20629;-69
2023/10/22 13:48:13;;;;;;;9.00;1.90;;;;;;;18.48;48.63;100012.75;5024988;28;20292;-68
2023/10/22 13:50:42;;;;;;;7.27;1.60;;;;;;;18.28;48.10;100007.47;5025857;28;20227;-69
2023/10/22 13:53:17;;;;;;;7.33;1.67;;;;;;;18.31;48.75;100017.75;5025231;28;20340;-67
2023/10/22 13:55:47;;;;;;;6.33;1.23;;;;;;;18.18;49.43;100023.16;5025566;28;20217;-68
2023/10/22 13:58:22;;;;;;;7.77;1.40;;;;;;;18.19;48.89;100020.28;5021894;28;20213;-68
2023/10/22 14:00:56;;;;;;;9.17;1.53;;;;;;;18.15;49.71;100029.75;5023545;28;20648;-68
2023/10/22 14:03:29;;;;;;;10.27;1.93;;;;;;;18.16;50.21;100025.22;5022351;28;20205;-72
2023/10/22 14:09:45;;;;;;;8.63;1.67;;;;;;;18.08;50.68;100023.56;4830638;29;20279;-69
2023/10/22 14:12:14;;;;;;;8.07;1.80;;;;;;;18.09;50.88;100033.28;4946061;28;20209;-68
2023/10/22 14:14:44;;;;;;;11.83;2.07;;;;;;;18.09;51.21;100029.75;5023713;28;20260;-69
2023/10/22 14:17:15;;;;;;;8.07;2.40;;;;;;;18.08;50.51;100039.66;5023184;28;20204;-69
2023/10/22 14:19:53;;;;;;;8.80;1.60;;;;;;;18.08;50.34;100041.53;5023618;28;20237;-68
2023/10/22 14:22:21;;;;;;;5.67;1.50;;;;;;;18.11;50.35;100039.25;5024081;28;20200;-68
2023/10/22 14:24:54;;;;;;;12.23;1.60;;;;;;;18.09;49.25;100041.31;5025505;28;20774;-68
2023/10/22 14:27:23;;;;;;;6.17;1.23;;;;;;;18.01;49.61;100033.50;5022894;28;20209;-67
2023/10/22 14:29:52;;;;;;;7.20;1.50;;;;;;;18.00;48.92;100037.19;5026369;28;20215;-68
2023/10/22 14:32:23;;;;;;;7.27;1.30;;;;;;;17.97;50.46;100043.78;5024677;28;20192;-67
2023/10/22 14:34:54;;;;;;;7.50;1.47;;;;;;;17.93;50.14;100041.75;5022661;28;20682;-68
2023/10/22 14:37:25;;;;;;;5.97;1.40;;;;;;;17.92;51.06;100040.09;5023464;28;21030;-68
2023/10/22 14:39:54;;;;;;;7.67;1.83;;;;;;;17.92;50.76;100046.28;5023873;28;20220;-69
2023/10/22 14:42:22;;;;;;;10.33;1.40;;;;;;;17.92;50.37;100048.13;5026537;28;20300;-68
2023/10/22 14:44:57;;;;;;;8.23;1.50;;;;;;;17.90;50.74;100045.66;5022600;28;20205;-68
2023/10/22 14:47:30;;;;;;;6.43;1.63;;;;;;;17.89;51.15;100056.59;5021287;28;20203;-68
2023/10/22 14:50:08;;;;;;;6.23;1.30;;;;;;;17.87;51.45;100043.38;5020774;28;20566;-68
2023/10/22 14:52:39;;;;;;;5.13;1.27;;;;;;;17.91;50.99;100059.91;5019083;28;20227;-68
2023/10/22 14:55:11;;;;;;;8.10;1.60;;;;;;;17.90;52.63;100047.50;5019688;28;20575;-68
2023/10/22 14:57:41;;;;;;;4.20;1.30;;;;;;;17.90;53.07;100058.22;5020547;28;20291;-68
2023/10/22 15:00:10;;;;;;;7.17;1.67;;;;;;;17.87;52.95;100058.63;5019905;28;20637;-67
2023/10/22 15:02:43;;;;;;;8.20;1.50;;;;;;;17.84;52.87;100064.44;5019952;28;20200;-68
2023/10/22 15:05:12;;;;;;;7.10;1.53;;;;;;;17.84;53.24;100059.06;5020704;28;20212;-68
2023/10/22 15:07:43;;;;;;;9.67;2.00;;;;;;;17.83;53.11;100068.97;5018929;28;20217;-68
2023/10/22 15:10:11;;;;;;;6.87;1.57;;;;;;;17.81;53.20;100067.50;5020701;28;20294;-69
2023/10/22 15:12:40;;;;;;;9.00;1.77;;;;;;;17.78;53.78;100065.22;5020441;28;20652;-70
2023/10/22 15:15:09;;;;;;;11.47;2.10;;;;;;;17.76;53.81;100068.13;5021177;28;20205;-70
2023/10/22 15:17:49;;;;;;;8.57;2.03;;;;;;;17.75;52.76;100068.34;5020019;28;20205;-70
2023/10/22 15:20:19;;;;;;;11.57;1.87;;;;;;;17.70;52.98;100062.75;5020752;28;20216;-70
2023/10/22 15:22:47;;;;;;;9.50;2.00;;;;;;;17.68;53.02;100066.44;5019702;28;20212;-69
2023/10/22 15:25:17;;;;;;;6.43;1.30;;;;;;;17.68;54.34;100069.13;5021931;28;20389;-70
2023/10/22 15:27:51;;;;;;;6.27;1.57;;;;;;;17.61;53.79;100076.31;5021929;28;20204;-70
2023/10/22 15:30:20;;;;;;;8.83;2.10;;;;;;;17.62;53.48;100069.97;5021999;28;20209;-70
2023/10/22 15:32:48;;;;;;;11.03;2.40;;;;;;;17.61;54.48;100078.16;5020862;28;20220;-70
2023/10/22 15:35:29;;;;;;;6.97;1.60;;;;;;;17.59;54.23;100073.00;5021539;28;20299;-69
2023/10/22 15:37:57;;;;;;;8.70;1.70;;;;;;;17.55;54.90;100077.13;5005887;28;20212;-69
2023/10/22 15:40:36;;;;;;;9.40;1.60;;;;;;;17.54;55.04;100080.84;5022787;28;20733;-69
2023/10/22 15:43:04;;;;;;;9.93;1.80;;;;;;;17.50;55.27;100089.50;5021593;28;20232;-69
2023/10/22 15:45:33;;;;;;;5.13;1.83;;;;;;;17.47;55.89;100085.38;5022624;28;20209;-70
2023/10/22 15:48:02;;;;;;;6.43;1.70;;;;;;;17.46;56.21;100094.44;5021461;28;20666;-69
2023/10/22 15:50:45;;;;;;;10.00;1.90;;;;;;;17.44;56.36;100095.66;5018882;28;20299;-69
2023/10/22 15:53:17;;;;;;;11.30;2.27;;;;;;;17.41;56.31;100086.19;5021215;28;20213;-67
2023/10/22 15:55:45;;;;;;;10.07;2.13;;;;;;;17.39;56.91;100098.13;5023846;28;20213;-67
2023/10/22 15:58:14;;;;;;;11.30;2.67;;;;;;;17.36;56.17;100088.63;5021513;28;20204;-68
2023/10/22 16:00:42;;;;;;;7.70;2.90;;;;;;;17.32;57.03;100087.38;5021694;28;20691;-69
2023/10/22 16:03:10;;;;;;;7.80;2.57;;;;;;;17.28;57.28;100096.84;5018870;28;20245;-68
2023/10/22 16:05:40;;;;;;;10.63;2.20;;;;;;;17.25;56.18;100100.72;5021231;28;20470;-68
2023/10/22 16:08:08;;;;;;;8.83;2.67;;;;;;;17.14;57.01;100095.97;5022219;28;20205;-68
2023/10/22 16:13:37;;;;;;;9.70;2.60;;;;;;;17.00;58.70;100101.44;5025159;28;20956;-69
2023/10/22 16:16:06;;;;;;;6.90;2.87;;;;;;;16.98;58.50;100100.81;5024485;28;20208;-68
2023/10/22 16:18:37;;;;;;;9.10;2.97;;;;;;;16.95;58.38;100102.06;5026003;28;20758;-68
2023/10/22 16:21:07;;;;;;;8.23;3.00;;;;;;;16.92;57.98;100103.25;5025720;28;20313;-68
2023/10/22 16:23:35;;;;;;;9.53;2.90;;;;;;;16.88;58.58;100104.72;5027116;28;20205;-69
2023/10/22 16:26:06;;;;;;;8.27;2.90;;;;;;;16.85;58.38;100114.97;5029310;28;20201;-69
2023/10/22 16:28:35;;;;;;;8.60;2.90;;;;;;;16.83;58.98;100107.13;5025907;28;20257;-69
2023/10/22 16:31:03;;;;;;;10.77;3.60;;;;;;;16.82;58.99;100124.22;5027488;28;20209;-70
2023/10/22 16:33:31;;;;;;;13.93;3.17;;;;;;;16.81;59.43;100127.09;5027521;28;20200;-70
2023/10/22 16:36:07;;;;;;;7.40;2.60;;;;;;;16.81;59.40;100127.09;5027171;28;20295;-70
2023/10/22 16:38:38;;;;;;;10.83;3.00;;;;;;;16.78;59.45;100136.38;5023155;28;20202;-68
2023/10/22 16:41:07;;;;;;;8.83;2.20;;;;;;;16.72;59.87;100138.97;5025565;28;20791;-68
2023/10/22 16:43:36;;;;;;;13.13;2.20;;;;;;;16.69;60.31;100145.56;5024289;28;20570;-67
2023/10/22 16:46:05;;;;;;;5.87;1.90;;;;;;;16.67;60.50;100150.28;5024338;28;20211;-68
2023/10/22 16:48:36;;;;;;;8.50;2.10;;;;;;;16.62;60.89;100152.72;5023057;28;20205;-68
2023/10/22 16:51:05;;;;;;;10.07;2.63;;;;;;;16.49;60.73;100155.25;5025935;28;20215;-68
2023/10/22 16:53:35;;;;;;;9.80;2.80;;;;;;;16.42;60.68;100159.72;5027802;28;20201;-68
2023/10/22 16:56:04;;;;;;;8.90;2.33;;;;;;;16.36;61.46;100160.53;5027064;28;20209;-68
2023/10/22 16:58:32;;;;;;;14.50;2.93;;;;;;;16.30;62.04;100161.25;5025912;28;20604;-68
2023/10/22 17:01:13;;;;;;;8.60;2.93;;;;;;;16.25;62.95;100159.19;5025951;28;20279;-68
2023/10/22 17:03:41;;;;;;;11.07;2.17;;;;;;;16.21;63.20;100165.91;5026578;28;20618;-69
2023/10/22 17:06:13;;;;;;;6.67;1.90;;;;;;;16.15;63.25;100164.84;5033132;28;20219;-68
2023/10/22 17:08:42;;;;;;;9.67;2.53;;;;;;;16.11;63.38;100163.56;5035607;28;20336;-68
2023/10/22 17:11:11;;;;;;;10.37;2.17;;;;;;;16.12;63.30;100169.75;5032046;28;20287;-68
2023/10/22 17:13:40;;;;;;;9.73;2.23;;;;;;;16.14;63.27;100170.38;5034463;28;20231;-68
2023/10/22 17:16:08;;;;;;;11.20;2.50;;;;;;;16.08;63.23;100174.66;5036747;28;20666;-68
2023/10/22 17:18:37;;;;;;;7.33;2.30;;;;;;;16.01;63.07;100175.59;5034927;28;20240;-68
2023/10/22 17:21:19;;;;;;;11.67;2.60;;;;;;;15.91;63.79;100189.31;5035958;28;20223;-69
2023/10/22 17:23:49;;;;;;;7.50;2.60;;;;;;;15.87;64.10;100188.00;5039188;28;20201;-67
2023/10/22 17:26:21;;;;;;;10.57;2.17;;;;;;;15.83;64.16;100189.41;5032296;28;20680;-67
2023/10/22 17:28:50;;;;;;;6.23;1.63;;;;;;;15.78;64.70;100194.50;5027245;28;20217;-67
2023/10/22 17:31:19;;;;;;;7.40;1.90;;;;;;;15.79;64.31;100196.16;5028039;28;20909;-67
2023/10/22 17:33:48;;;;;;;8.83;1.83;;;;;;;15.78;64.32;100199.84;5025297;28;20216;-67
2023/10/22 17:36:32;;;;;;;9.63;2.13;;;;;;;15.76;64.32;100197.34;5026464;28;20204;-68
2023/10/22 17:39:05;;;;;;;10.43;2.00;;;;;;;15.77;64.75;100208.88;5025458;28;20657;-67
2023/10/22 17:41:34;;;;;;;13.73;3.20;;;;;;;15.80;64.53;100216.53;5024251;28;20701;-67
2023/10/22 17:44:04;;;;;;;8.07;2.40;;;;;;;15.85;63.92;100218.63;5024595;28;20208;-67
2023/10/22 17:46:32;;;;;;;9.13;2.40;;;;;;;15.88;63.91;100219.06;5023976;28;20239;-68
2023/10/22 17:49:01;;;;;;;10.47;2.93;;;;;;;15.89;63.67;100218.06;5025644;28;20204;-68
2023/10/22 17:51:30;;;;;;;5.43;2.77;;;;;;;15.86;63.71;100223.78;5023775;28;20213;-68
2023/10/22 17:53:58;;;;;;;10.77;3.70;;;;;;;15.85;64.49;100222.13;5022380;28;20237;-68
2023/10/22 21:13:02;;;;;;;10.67;4.60;;;;;;;14.18;73.30;100332.78;5021763;28;20283;-69
2023/10/22 21:15:30;;;;;;;12.33;4.37;;;;;;;14.16;73.77;100332.16;5030452;28;20203;-69
2023/10/22 21:18:00;;;;;;;12.80;4.40;;;;;;;14.15;73.34;100328.66;5035235;28;20200;-69
2023/10/22 21:20:29;;;;;;;11.37;4.77;;;;;;;14.15;73.04;100327.81;5033155;28;20201;-70
2023/10/22 21:22:57;;;;;;;13.07;5.97;;;;;;;14.11;73.02;100337.16;5031492;28;20311;-69
2023/10/22 21:25:26;;;;;;;13.53;5.50;;;;;;;14.13;73.13;100325.31;5029807;28;20200;-69
2023/10/22 21:27:54;;;;;;;12.47;5.70;;;;;;;14.16;72.66;100332.94;5031649;28;20216;-69
2023/10/22 21:30:24;;;;;;;9.23;5.13;;;;;;;14.15;72.94;100327.81;5032035;28;20201;-70
2023/10/22 21:33:25;;;;;;;15.97;6.13;;;;;;;14.10;73.32;100331.00;5032887;28;20204;-69
2023/10/22 21:36:14;;;;;;;13.87;5.93;;;;;;;14.10;73.28;100332.81;5034454;28;20235;-69
2023/10/22 21:38:43;;;;;;;9.50;5.07;;;;;;;14.08;73.51;100326.81;5029606;28;20208;-69
2023/10/22 21:41:15;;;;;;;9.07;4.50;;;;;;;14.06;73.13;100334.19;5030165;28;20399;-69
2023/10/22 21:43:46;;;;;;;12.70;5.50;;;;;;;14.06;73.23;100334.19;5034845;28;20235;-69
2023/10/22 21:46:58;;;;;;;15.43;4.97;;;;;;;14.07;72.83;100325.19;5034063;28;20212;-69
2023/10/22 21:49:31;;;;;;;11.30;5.50;;;;;;;14.06;73.07;100327.03;5025351;28;20200;-70
2023/10/22 21:52:00;;;;;;;13.43;5.37;;;;;;;13.94;73.58;100323.91;5032701;28;20208;-69
2023/10/22 21:54:29;;;;;;;11.87;4.73;;;;;;;13.78;74.10;100334.63;5029979;28;20657;-69
2023/10/22 21:57:16;;;;;;;11.07;5.00;;;;;;;13.60;75.17;100326.03;5030231;28;20563;-69
2023/10/22 22:00:23;;;;;;;14.17;5.27;;;;;;;13.53;75.33;100328.56;5032746;28;20204;-69
2023/10/22 22:06:04;;;;;;;14.13;5.33;;;;;;;13.65;74.77;100321.00;5009414;28;20216;-69
2023/10/22 22:08:56;;;;;;;11.67;4.70;;;;;;;13.78;73.89;100326.63;5034738;28;20222;-69
2023/10/22 22:15:12;;;;;;;9.87;5.13;;;;;;;13.75;73.37;100318.97;5020122;28;20260;-68
2023/10/22 22:25:19;;;;;;;12.13;5.20;;;;;;;13.23;76.35;100331.09;4938414;29;20313;-69
2023/10/22 22:31:20;;;;;;;13.10;5.10;;;;;;;13.17;77.01;100322.78;5033086;28;20201;-68
2023/10/22 22:33:53;;;;;;;13.23;4.50;;;;;;;13.15;77.18;100327.44;5034832;28;20209;-69
2023/10/22 22:36:41;;;;;;;10.40;4.90;;;;;;;13.16;76.76;100326.44;5029228;28;20291;-68
2023/10/22 22:42:15;;;;;;;14.70;4.53;;;;;;;13.28;76.36;100345.56;5021655;28;20270;-68
2023/10/22 22:44:44;;;;;;;12.77;4.93;;;;;;;13.32;75.60;100346.06;5032318;28;20204;-69
2023/10/22 22:47:12;;;;;;;15.80;5.20;;;;;;;13.26;75.98;100350.25;5024603;28;20241;-68
2023/10/22 22:49:41;;;;;;;16.83;5.67;;;;;;;13.16;76.51;100346.91;5034381;28;20188;-69
2023/10/22 22:52:14;;;;;;;11.53;5.20;;;;;;;13.14;76.51;100354.22;5018835;28;21003;-69
2023/10/22 22:57:40;;;;;;;11.17;4.77;;;;;;;13.23;76.04;100349.72;5028040;28;20207;-69
2023/10/22 23:00:10;;;;;;;9.43;4.77;;;;;;;13.28;75.40;100358.88;5033918;28;20230;-69
2023/10/22 23:02:42;;;;;;;9.47;4.30;;;;;;;13.36;74.25;100355.38;5034170;28;20208;-68
2023/10/22 23:05:11;;;;;;;12.60;4.23;;;;;;;13.39;73.99;100357.69;5034366;28;20215;-68
2023/10/22 23:07:41;;;;;;;8.30;4.03;;;;;;;13.40;73.56;100359.34;5029071;28;20211;-69
2023/10/22 23:10:11;;;;;;;12.43;4.27;;;;;;;13.46;73.55;100358.69;5030141;28;20555;-69
2023/10/22 23:12:40;;;;;;;10.77;4.00;;;;;;;13.42;73.39;100362.69;5029125;28;20566;-69
2023/10/22 23:15:09;;;;;;;10.27;3.87;;;;;;;13.39;73.41;100360.34;5034024;28;20213;-69
2023/10/22 23:17:54;;;;;;;9.90;3.53;;;;;;;13.33;73.66;100358.38;5003046;28;20211;-71
2023/10/22 23:20:39;;;;;;;13.00;3.77;;;;;;;13.30;73.43;100364.03;5005571;28;20221;-72
2023/10/22 23:23:20;;;;;;;15.10;3.70;;;;;;;13.31;73.45;100358.53;5033643;28;20558;-69
2023/10/22 23:25:58;;;;;;;13.63;4.13;;;;;;;13.34;73.61;100370.69;5028270;28;20586;-69
2023/10/22 23:28:43;;;;;;;7.80;3.70;;;;;;;13.34;73.47;100368.03;5006987;28;20214;-69
2023/10/22 23:31:18;;;;;;;13.47;3.60;;;;;;;13.29;73.56;100373.00;5029999;28;20215;-68
2023/10/22 23:33:51;;;;;;;7.23;3.50;;;;;;;13.24;73.58;100368.22;5033968;28;20220;-69
2023/10/22 23:36:45;;;;;;;12.70;2.90;;;;;;;13.23;73.71;100373.69;4953816;29;20207;-69
2023/10/22 23:47:12;;;;;;;9.43;4.37;;;;;;;13.12;73.26;100375.66;4859187;29;20216;-68
2023/10/22 23:53:28;;;;;;;10.80;3.73;;;;;;;12.88;74.84;100369.50;4953195;29;20220;-68
2023/10/22 23:55:57;;;;;;;7.47;3.33;;;;;;;12.87;75.14;100379.31;5019734;28;20644;-68
2023/10/22 23:58:26;;;;;;;14.07;3.17;;;;;;;12.88;74.56;100386.31;5031702;28;20196;-68
